createdAt,value
2018-07-12T00:01:26.055Z,3.00
2018-07-12T00:03:52.685Z,3.60
2018-07-12T00:06:19.329Z,3.10
2018-07-12T00:08:45.924Z,3.00
2018-07-12T00:11:12.513Z,3.10
2018-07-12T00:13:39.155Z,3.40
2018-07-12T00:16:05.778Z,2.87
2018-07-12T00:18:32.385Z,3.23
2018-07-12T00:20:59.005Z,2.80
2018-07-12T00:23:25.667Z,3.37
2018-07-12T00:25:52.293Z,2.73
2018-07-12T00:28:18.950Z,3.60
2018-07-12T00:30:45.545Z,2.87
2018-07-12T00:33:12.208Z,3.40
2018-07-12T00:35:38.790Z,2.73
2018-07-12T00:38:05.412Z,3.50
2018-07-12T00:40:32.085Z,3.37
2018-07-12T00:42:59.161Z,3.63
2018-07-12T00:45:25.822Z,2.80
2018-07-12T00:47:52.417Z,2.97
2018-07-12T00:50:19.013Z,4.03
2018-07-12T00:52:45.614Z,3.20
2018-07-12T00:55:12.263Z,2.93
2018-07-12T00:57:38.942Z,3.10
2018-07-12T01:00:06.041Z,3.57
2018-07-12T01:02:32.742Z,3.20
2018-07-12T01:04:59.354Z,3.37
2018-07-12T01:07:25.998Z,3.20
2018-07-12T01:09:52.607Z,3.27
2018-07-12T01:12:19.247Z,3.03
2018-07-12T01:14:45.864Z,2.93
2018-07-12T01:17:12.438Z,3.20
2018-07-12T01:19:39.053Z,3.33
2018-07-12T01:22:05.653Z,3.50
2018-07-12T01:24:32.266Z,2.97
2018-07-12T01:26:58.856Z,3.83
2018-07-12T01:29:25.458Z,3.03
2018-07-12T01:31:52.038Z,3.13
2018-07-12T01:34:18.634Z,3.13
2018-07-12T01:36:45.689Z,3.33
2018-07-12T01:39:12.309Z,3.53
2018-07-12T01:41:38.927Z,3.17
2018-07-12T01:44:05.650Z,3.23
2018-07-12T01:46:32.308Z,2.93
2018-07-12T01:48:58.924Z,2.90
2018-07-12T01:51:25.547Z,2.67
2018-07-12T01:53:52.142Z,3.80
2018-07-12T01:56:18.744Z,3.40
2018-07-12T01:58:45.353Z,3.00
2018-07-12T02:01:11.957Z,2.90
2018-07-12T02:03:38.559Z,3.20
2018-07-12T02:06:05.142Z,2.90
2018-07-12T02:08:31.727Z,2.90
2018-07-12T02:10:58.348Z,3.00
2018-07-12T02:13:24.938Z,3.03
2018-07-12T02:15:51.554Z,3.07
2018-07-12T02:18:18.596Z,3.50
2018-07-12T02:20:45.646Z,3.00
2018-07-12T02:23:12.254Z,3.23
2018-07-12T02:25:38.876Z,3.17
2018-07-12T02:28:05.509Z,3.23
2018-07-12T02:30:32.092Z,3.63
2018-07-12T02:32:58.732Z,3.10
2018-07-12T02:35:25.781Z,3.20
2018-07-12T02:37:52.374Z,3.40
2018-07-12T02:40:18.939Z,3.17
2018-07-12T02:42:45.588Z,3.23
2018-07-12T02:45:12.168Z,2.83
2018-07-12T02:47:38.772Z,2.60
2018-07-12T02:50:05.387Z,3.20
2018-07-12T02:52:32.001Z,3.00
2018-07-12T02:54:58.591Z,3.67
2018-07-12T02:57:25.222Z,3.10
2018-07-12T02:59:51.829Z,3.67
2018-07-12T03:02:18.457Z,3.00
2018-07-12T03:04:45.501Z,3.20
2018-07-12T03:07:12.167Z,3.27
2018-07-12T03:09:38.779Z,3.33
2018-07-12T03:12:05.361Z,2.93
2018-07-12T03:14:31.978Z,3.13
2018-07-12T03:16:58.573Z,3.87
2018-07-12T03:19:25.633Z,3.13
2018-07-12T03:21:52.264Z,3.80
2018-07-12T03:24:19.358Z,3.70
2018-07-12T03:26:45.973Z,3.67
2018-07-12T03:29:12.554Z,3.20
2018-07-12T03:31:39.170Z,3.17
2018-07-12T03:34:05.732Z,3.33
2018-07-12T03:36:32.325Z,3.70
2018-07-12T03:38:58.897Z,2.93
2018-07-12T03:41:25.541Z,3.37
2018-07-12T03:43:52.141Z,3.20
2018-07-12T03:46:18.733Z,3.03
2018-07-12T03:48:45.785Z,3.67
2018-07-12T03:51:12.358Z,3.30
2018-07-12T03:53:39.033Z,3.73
2018-07-12T03:56:05.652Z,3.73
2018-07-12T03:58:32.245Z,3.20
2018-07-12T04:00:58.906Z,3.20
2018-07-12T04:03:25.521Z,3.73
2018-07-12T04:05:52.161Z,3.90
2018-07-12T04:08:18.778Z,4.47
2018-07-12T04:10:45.353Z,3.87
2018-07-12T04:13:11.979Z,5.10
2018-07-12T04:15:39.438Z,3.37
2018-07-12T04:18:06.069Z,4.10
2018-07-12T04:20:32.693Z,4.00
2018-07-12T04:22:59.380Z,4.13
2018-07-12T04:25:25.993Z,4.10
2018-07-12T04:27:52.617Z,4.60
2018-07-12T04:30:19.198Z,4.10
2018-07-12T04:32:45.825Z,3.43
2018-07-12T04:35:12.474Z,3.90
2018-07-12T04:37:39.129Z,3.70
2018-07-12T04:40:05.742Z,3.30
2018-07-12T04:42:32.470Z,3.63
2018-07-12T04:44:59.069Z,4.23
2018-07-12T04:47:25.778Z,4.10
2018-07-12T04:49:52.353Z,4.13
2018-07-12T04:52:18.974Z,3.83
2018-07-12T04:54:45.567Z,3.93
2018-07-12T04:57:12.187Z,4.33
2018-07-12T04:59:38.821Z,4.53
2018-07-12T05:02:05.437Z,6.93
2018-07-12T05:04:32.169Z,4.40
2018-07-12T05:06:58.736Z,4.90
2018-07-12T05:09:25.340Z,4.67
2018-07-12T05:11:52.505Z,5.20
2018-07-12T05:14:19.106Z,4.80
2018-07-12T05:16:45.777Z,5.40
2018-07-12T05:19:12.400Z,5.10
2018-07-12T05:21:38.985Z,5.33
2018-07-12T05:24:05.589Z,5.33
2018-07-12T05:26:34.730Z,5.07
2018-07-12T05:29:01.355Z,5.40
2018-07-12T05:31:27.998Z,5.70
2018-07-12T05:33:54.629Z,5.17
2018-07-12T05:37:03.584Z,5.40
2018-07-12T05:39:31.954Z,4.23
2018-07-12T05:42:00.355Z,5.40
2018-07-12T05:44:28.750Z,5.50
2018-07-12T05:46:57.138Z,4.93
2018-07-12T05:49:25.515Z,5.07
2018-07-12T05:51:53.869Z,6.40
2018-07-12T05:54:22.275Z,5.97
2018-07-12T05:56:50.711Z,5.10
2018-07-12T05:59:19.152Z,5.20
2018-07-12T06:04:33.823Z,5.03
2018-07-12T06:07:02.191Z,5.43
2018-07-12T06:09:30.593Z,5.93
2018-07-12T06:12:05.980Z,5.57
2018-07-12T06:14:34.384Z,6.37
2018-07-12T06:17:02.816Z,6.70
2018-07-12T06:19:31.237Z,6.57
2018-07-12T06:21:59.620Z,7.87
2018-07-12T06:24:28.087Z,7.33
2018-07-12T06:26:56.401Z,8.30
2018-07-12T06:29:24.762Z,6.50
2018-07-12T06:31:53.120Z,6.77
2018-07-12T06:34:21.506Z,5.60
2018-07-12T06:36:49.893Z,6.00
2018-07-12T06:39:18.264Z,5.97
2018-07-12T06:41:46.537Z,6.07
2018-07-12T06:44:14.878Z,6.40
2018-07-12T06:46:43.317Z,5.83
2018-07-12T06:49:11.569Z,6.27
2018-07-12T06:51:40.094Z,6.20
2018-07-12T06:54:08.429Z,5.93
2018-07-12T06:56:36.790Z,5.57
2018-07-12T06:59:05.266Z,5.90
2018-07-12T07:01:33.752Z,7.40
2018-07-12T07:04:02.133Z,7.20
2018-07-12T07:06:30.487Z,6.33
2018-07-12T07:08:58.826Z,6.80
2018-07-12T07:11:27.227Z,6.77
2018-07-12T07:13:55.635Z,6.60
2018-07-12T07:16:24.066Z,5.83
2018-07-12T07:18:52.531Z,5.50
2018-07-12T07:21:20.937Z,6.07
2018-07-12T07:23:49.318Z,7.67
2018-07-12T07:26:24.649Z,6.13
2018-07-12T07:28:52.954Z,6.73
2018-07-12T07:31:21.399Z,6.73
2018-07-12T07:33:49.897Z,6.93
2018-07-12T07:36:19.543Z,7.70
2018-07-12T07:38:47.882Z,7.27
2018-07-12T07:41:16.232Z,6.97
2018-07-12T07:43:44.698Z,8.10
2018-07-12T07:46:13.072Z,8.00
2018-07-12T07:48:41.445Z,7.83
2018-07-12T07:51:09.637Z,7.30
2018-07-12T07:53:38.228Z,6.70
2018-07-12T07:56:06.820Z,7.70
2018-07-12T07:58:35.223Z,7.70
2018-07-12T08:01:03.633Z,7.73
2018-07-12T08:03:32.013Z,6.27
2018-07-12T08:06:00.253Z,7.77
2018-07-12T08:08:28.659Z,6.43
2018-07-12T08:10:56.891Z,8.03
2018-07-12T08:13:25.220Z,8.60
2018-07-12T08:15:53.528Z,8.40
2018-07-12T08:18:21.931Z,8.23
2018-07-12T08:20:50.271Z,7.53
2018-07-12T08:23:18.597Z,7.90
2018-07-12T08:25:46.997Z,8.20
2018-07-12T08:28:26.656Z,8.30
2018-07-12T08:30:55.243Z,8.03
2018-07-12T08:33:24.059Z,9.50
2018-07-12T08:35:52.381Z,8.40
2018-07-12T08:38:20.925Z,7.27
2018-07-12T08:40:49.335Z,7.87
2018-07-12T08:43:17.706Z,8.43
2018-07-12T08:45:46.071Z,7.33
2018-07-12T08:48:14.398Z,8.57
2018-07-12T08:50:42.884Z,6.90
2018-07-12T08:53:11.231Z,7.40
2018-07-12T08:55:39.738Z,8.03
2018-07-12T08:58:08.190Z,7.73
2018-07-12T09:00:36.602Z,6.47
2018-07-12T09:03:05.206Z,5.63
2018-07-12T09:05:33.582Z,5.57
2018-07-12T09:08:01.922Z,5.20
2018-07-12T09:10:30.253Z,5.83
2018-07-12T09:12:58.585Z,5.63
2018-07-12T09:15:26.893Z,6.60
2018-07-12T09:17:55.343Z,5.93
2018-07-12T09:20:23.790Z,6.60
2018-07-12T09:22:52.169Z,6.17
2018-07-12T09:25:20.649Z,6.17
2018-07-12T09:27:49.028Z,7.63
2018-07-12T09:30:17.407Z,6.30
2018-07-12T09:32:45.684Z,5.73
2018-07-12T09:35:14.104Z,6.60
2018-07-12T09:37:42.534Z,7.03
2018-07-12T09:40:10.945Z,7.60
2018-07-12T09:42:39.325Z,6.60
2018-07-12T09:45:07.788Z,7.70
2018-07-12T09:47:36.223Z,6.27
2018-07-12T09:50:04.742Z,7.07
2018-07-12T09:52:36.004Z,7.40
2018-07-12T09:55:04.509Z,7.27
2018-07-12T09:57:49.823Z,6.43
2018-07-12T10:00:22.434Z,5.53
2018-07-12T10:02:56.300Z,7.10
2018-07-12T10:05:30.262Z,5.00
2018-07-12T10:08:04.275Z,5.80
2018-07-12T10:10:37.247Z,6.20
2018-07-12T10:13:11.319Z,5.03
2018-07-12T10:15:42.586Z,5.90
2018-07-12T10:18:16.573Z,5.43
2018-07-12T10:20:45.064Z,5.27
2018-07-12T10:23:13.398Z,4.43
2018-07-12T10:25:41.844Z,4.50
2018-07-12T10:28:10.370Z,5.03
2018-07-12T10:30:38.789Z,3.90
2018-07-12T10:33:07.917Z,4.47
2018-07-12T10:35:36.281Z,4.70
2018-07-12T10:38:04.716Z,4.63
2018-07-12T10:40:33.185Z,4.43
2018-07-12T10:43:01.742Z,4.60
2018-07-12T10:45:30.168Z,4.70
2018-07-12T10:47:58.569Z,4.37
2018-07-12T10:50:27.062Z,5.10
2018-07-12T10:52:55.465Z,4.60
2018-07-12T10:55:23.842Z,4.77
2018-07-12T10:57:52.300Z,5.10
2018-07-12T11:00:20.714Z,5.03
2018-07-12T11:02:49.076Z,4.63
2018-07-12T11:05:17.875Z,6.17
2018-07-12T11:07:46.217Z,5.20
2018-07-12T11:10:14.591Z,4.80
2018-07-12T11:12:42.965Z,4.87
2018-07-12T11:15:11.345Z,5.00
2018-07-12T11:17:39.736Z,4.97
2018-07-12T11:20:08.126Z,4.97
2018-07-12T11:22:36.486Z,5.50
2018-07-12T11:25:04.906Z,4.57
2018-07-12T11:27:33.362Z,5.20
2018-07-12T11:30:02.688Z,4.80
2018-07-12T11:32:31.045Z,4.37
2018-07-12T11:34:59.446Z,5.40
2018-07-12T11:37:28.096Z,5.20
2018-07-12T11:39:56.451Z,5.80
2018-07-12T11:42:24.831Z,5.40
2018-07-12T11:44:53.180Z,5.67
2018-07-12T11:47:21.541Z,5.43
2018-07-12T11:49:49.748Z,5.90
2018-07-12T11:52:18.162Z,5.13
2018-07-12T11:54:46.732Z,6.13
2018-07-12T11:57:15.146Z,6.53
2018-07-12T11:59:43.535Z,5.93
2018-07-12T12:02:11.985Z,5.40
2018-07-12T12:04:40.376Z,6.40
2018-07-12T12:07:09.368Z,6.17
2018-07-12T12:09:37.868Z,6.67
2018-07-12T12:12:06.302Z,6.40
2018-07-12T12:14:34.665Z,6.17
2018-07-12T12:17:03.033Z,5.70
2018-07-12T12:19:31.657Z,6.00
2018-07-12T12:22:00.551Z,6.13
2018-07-12T12:24:28.957Z,5.67
2018-07-12T12:26:57.342Z,5.17
2018-07-12T12:29:25.794Z,5.17
2018-07-12T12:31:54.233Z,4.50
2018-07-12T12:34:22.626Z,5.50
2018-07-12T12:36:51.060Z,5.37
2018-07-12T12:39:19.494Z,4.90
2018-07-12T12:41:47.861Z,5.30
2018-07-12T12:44:16.210Z,4.40
2018-07-12T12:46:44.636Z,7.43
2018-07-12T12:49:12.952Z,6.07
2018-07-12T12:51:41.409Z,6.00
2018-07-12T12:54:09.651Z,5.20
2018-07-12T12:56:38.213Z,5.70
2018-07-12T12:59:06.611Z,6.70
2018-07-12T13:01:35.065Z,5.53
2018-07-12T13:04:03.455Z,4.70
2018-07-12T13:06:31.853Z,4.70
2018-07-12T13:09:00.229Z,5.60
2018-07-12T13:11:28.596Z,5.80
2018-07-12T13:13:57.186Z,5.53
2018-07-12T13:16:25.472Z,6.30
2018-07-12T13:18:53.900Z,5.37
2018-07-12T13:21:22.266Z,5.53
2018-07-12T13:23:50.680Z,5.97
2018-07-12T13:26:19.057Z,5.50
2018-07-12T13:28:47.405Z,5.40
2018-07-12T13:31:15.789Z,5.70
2018-07-12T13:33:44.125Z,5.10
2018-07-12T13:36:12.341Z,5.80
2018-07-12T13:38:40.758Z,5.37
2018-07-12T13:41:09.167Z,8.80
2018-07-12T13:43:37.475Z,8.63
2018-07-12T13:46:05.885Z,5.73
2018-07-12T13:48:34.214Z,5.20
2018-07-12T13:51:02.690Z,5.97
2018-07-12T13:53:31.049Z,5.70
2018-07-12T13:55:59.421Z,5.83
2018-07-12T13:58:27.628Z,6.50
2018-07-12T14:00:56.005Z,7.40
2018-07-12T14:03:24.404Z,8.40
2018-07-12T14:05:52.785Z,6.83
2018-07-12T14:08:21.237Z,5.57
2018-07-12T14:10:49.711Z,5.30
2018-07-12T14:13:18.180Z,6.00
2018-07-12T14:15:46.882Z,4.73
2018-07-12T14:18:15.284Z,9.13
2018-07-12T14:20:43.706Z,4.40
2018-07-12T14:23:11.948Z,5.67
2018-07-12T14:25:40.318Z,4.80
2018-07-12T14:28:08.677Z,4.80
2018-07-12T14:30:37.350Z,4.63
2018-07-12T14:33:05.830Z,4.70
2018-07-12T14:35:34.230Z,4.60
2018-07-12T14:38:02.710Z,4.67
2018-07-12T14:40:31.100Z,4.90
2018-07-12T14:42:59.469Z,4.60
2018-07-12T14:45:27.844Z,4.70
2018-07-12T14:47:56.317Z,5.07
2018-07-12T14:50:24.796Z,5.20
2018-07-12T14:52:53.425Z,4.17
2018-07-12T14:55:47.878Z,4.97
2018-07-12T14:58:16.307Z,4.63
2018-07-12T15:00:44.677Z,4.70
2018-07-12T15:03:13.096Z,5.20
2018-07-12T15:05:41.511Z,5.03
2018-07-12T15:08:09.914Z,4.20
2018-07-12T15:10:38.197Z,4.27
2018-07-12T15:13:07.559Z,4.97
2018-07-12T15:15:35.964Z,4.60
2018-07-12T15:18:05.029Z,4.70
2018-07-12T15:20:33.412Z,4.30
2018-07-12T15:23:01.868Z,4.40
2018-07-12T15:25:30.362Z,4.27
2018-07-12T15:27:58.898Z,4.40
2018-07-12T15:30:27.116Z,4.20
2018-07-12T15:32:55.469Z,4.47
2018-07-12T15:35:23.896Z,3.93
2018-07-12T15:37:52.376Z,4.13
2018-07-12T15:40:20.712Z,4.10
2018-07-12T15:42:49.098Z,5.20
2018-07-12T15:45:17.638Z,4.20
2018-07-12T15:47:46.047Z,3.97
2018-07-12T15:50:16.426Z,4.20
2018-07-12T15:52:44.959Z,4.37
2018-07-12T15:55:13.389Z,4.10
2018-07-12T15:57:41.882Z,4.47
2018-07-12T16:00:10.329Z,3.70
2018-07-12T16:02:41.562Z,3.57
2018-07-12T16:05:09.950Z,3.23
2018-07-12T16:07:38.175Z,3.40
2018-07-12T16:10:06.556Z,3.07
2018-07-12T16:12:35.091Z,2.90
2018-07-12T16:15:03.913Z,3.97
2018-07-12T16:17:32.401Z,3.37
2018-07-12T16:20:00.752Z,4.20
2018-07-12T16:22:29.204Z,3.90
2018-07-12T16:24:57.701Z,3.53
2018-07-12T16:27:26.252Z,3.90
2018-07-12T16:29:54.774Z,3.40
2018-07-12T16:32:23.047Z,3.20
2018-07-12T16:34:51.780Z,2.73
2018-07-12T16:37:20.106Z,2.83
2018-07-12T16:39:48.674Z,3.40
2018-07-12T16:42:17.150Z,3.40
2018-07-12T16:44:45.519Z,3.17
2018-07-12T16:47:13.983Z,3.00
2018-07-12T16:49:42.388Z,3.07
2018-07-12T16:52:10.676Z,3.30
2018-07-12T16:54:39.100Z,2.80
2018-07-12T16:57:08.637Z,3.10
2018-07-12T16:59:36.947Z,2.97
2018-07-12T17:02:05.375Z,3.50
2018-07-12T17:04:33.794Z,3.07
2018-07-12T17:07:02.263Z,5.37
2018-07-12T17:09:30.756Z,3.13
2018-07-12T17:11:59.187Z,3.63
2018-07-12T17:14:27.538Z,3.37
2018-07-12T17:16:55.964Z,2.90
2018-07-12T17:19:24.360Z,3.30
2018-07-12T17:21:52.929Z,3.20
2018-07-12T17:24:21.309Z,2.97
2018-07-12T17:26:49.574Z,3.10
2018-07-12T17:29:18.007Z,3.23
2018-07-12T17:31:46.414Z,3.10
2018-07-12T17:34:15.161Z,2.87
2018-07-12T17:36:43.565Z,3.40
2018-07-12T17:39:12.008Z,3.07
2018-07-12T17:41:40.373Z,4.60
2018-07-12T17:44:08.752Z,3.90
2018-07-12T17:46:37.085Z,3.23
2018-07-12T17:49:05.614Z,3.93
2018-07-12T17:51:33.969Z,3.80
2018-07-12T17:54:02.246Z,2.97
2018-07-12T17:56:30.525Z,3.77
2018-07-12T17:58:58.826Z,3.10
2018-07-12T18:01:27.378Z,2.90
2018-07-12T18:03:55.823Z,3.23
2018-07-12T18:06:24.282Z,3.33
2018-07-12T18:08:53.101Z,2.80
2018-07-12T18:11:21.549Z,3.60
2018-07-12T18:13:50.039Z,3.00
2018-07-12T18:16:18.400Z,3.07
2018-07-12T18:18:47.028Z,2.93
2018-07-12T18:21:15.473Z,3.33
2018-07-12T18:23:43.937Z,3.40
2018-07-12T18:26:12.349Z,3.40
2018-07-12T18:28:40.766Z,2.80
2018-07-12T18:31:09.232Z,3.00
2018-07-12T18:33:37.474Z,3.40
2018-07-12T18:36:06.024Z,4.40
2018-07-12T18:38:34.415Z,3.90
2018-07-12T18:41:02.830Z,3.83
2018-07-12T18:43:31.273Z,3.37
2018-07-12T18:45:59.809Z,8.37
2018-07-12T18:48:28.175Z,3.37
2018-07-12T18:50:56.653Z,3.83
2018-07-12T18:53:25.043Z,3.70
2018-07-12T18:55:53.443Z,3.70
2018-07-12T18:58:21.778Z,4.63
2018-07-12T19:00:50.175Z,4.30
2018-07-12T19:03:18.607Z,3.80
2018-07-12T19:05:47.127Z,3.70
2018-07-12T19:08:15.538Z,4.10
2018-07-12T19:10:43.945Z,4.27
2018-07-12T19:13:12.433Z,3.50
2018-07-12T19:15:40.826Z,3.80
2018-07-12T19:18:09.157Z,4.20
2018-07-12T19:20:37.650Z,4.50
2018-07-12T19:23:06.142Z,4.50
2018-07-12T19:25:34.515Z,4.10
2018-07-12T19:28:02.828Z,3.90
2018-07-12T19:30:31.147Z,3.83
2018-07-12T19:32:59.616Z,3.97
2018-07-12T19:35:28.033Z,4.13
2018-07-12T19:37:56.468Z,4.80
2018-07-12T19:40:24.987Z,4.60
2018-07-12T19:42:53.498Z,4.90
2018-07-12T19:45:21.931Z,5.23
2018-07-12T19:47:50.471Z,5.07
2018-07-12T19:50:18.861Z,4.03
2018-07-12T19:52:47.391Z,4.53
2018-07-12T19:55:15.857Z,4.30
2018-07-12T19:57:44.371Z,4.53
2018-07-12T20:00:12.914Z,4.13
2018-07-12T20:02:41.403Z,4.80
2018-07-12T20:05:10.026Z,4.37
2018-07-12T20:07:44.999Z,4.40
2018-07-12T20:10:13.435Z,5.23
2018-07-12T20:12:41.896Z,3.73
2018-07-12T20:15:10.604Z,4.10
2018-07-12T20:17:39.221Z,4.57
2018-07-12T20:20:08.403Z,4.27
2018-07-12T20:22:36.941Z,4.13
2018-07-12T20:25:05.415Z,4.27
2018-07-12T20:27:33.823Z,4.37
2018-07-12T20:30:02.122Z,4.13
2018-07-12T20:32:30.510Z,4.00
2018-07-12T20:34:58.989Z,5.23
2018-07-12T20:37:27.505Z,4.23
2018-07-12T20:39:55.922Z,4.43
2018-07-12T20:42:24.465Z,4.90
2018-07-12T20:44:53.036Z,4.67
2018-07-12T20:47:21.635Z,4.60
2018-07-12T20:49:50.063Z,4.77
2018-07-12T20:52:18.465Z,4.70
2018-07-12T20:54:47.055Z,4.97
2018-07-12T20:57:15.585Z,5.10
2018-07-12T20:59:44.122Z,4.10
2018-07-12T21:02:12.584Z,7.53
2018-07-12T21:04:41.049Z,4.57
2018-07-12T21:07:09.530Z,4.47
2018-07-12T21:09:37.926Z,4.57
2018-07-12T21:12:06.606Z,4.53
2018-07-12T21:14:35.000Z,4.47
2018-07-12T21:17:03.549Z,4.77
2018-07-12T21:19:32.060Z,4.40
2018-07-12T21:22:01.369Z,4.20
2018-07-12T21:24:29.952Z,4.50
2018-07-12T21:26:58.386Z,4.30
2018-07-12T21:29:26.887Z,4.60
2018-07-12T21:31:55.465Z,5.07
2018-07-12T21:34:23.893Z,4.60
2018-07-12T21:36:52.763Z,4.67
2018-07-12T21:39:21.125Z,4.80
2018-07-12T21:41:49.536Z,4.90
2018-07-12T21:44:17.985Z,6.00
2018-07-12T21:46:46.409Z,5.80
2018-07-12T21:49:14.846Z,5.40
2018-07-12T21:51:43.422Z,4.10
2018-07-12T21:54:11.729Z,4.40
2018-07-12T21:56:40.207Z,4.43
2018-07-12T21:59:08.557Z,4.80
2018-07-12T22:01:36.974Z,4.43
2018-07-12T22:04:05.238Z,5.73
2018-07-12T22:08:57.062Z,4.83
2018-07-12T22:11:25.460Z,6.07
2018-07-12T22:13:54.532Z,4.90
2018-07-12T22:16:23.027Z,5.10
2018-07-12T22:18:51.270Z,4.87
2018-07-12T22:21:19.654Z,4.63
2018-07-12T22:23:48.102Z,4.67
2018-07-12T22:26:16.485Z,4.83
2018-07-12T22:28:44.876Z,5.70
2018-07-12T22:31:13.294Z,4.93
2018-07-12T22:33:41.694Z,5.00
2018-07-12T22:36:10.090Z,4.50
2018-07-12T22:38:38.441Z,5.40
2018-07-12T22:41:06.928Z,4.70
2018-07-12T22:43:35.321Z,5.13
2018-07-12T22:46:03.794Z,4.90
2018-07-12T22:48:32.295Z,4.20
2018-07-12T22:51:00.580Z,4.97
2018-07-12T22:53:28.988Z,4.93
2018-07-12T22:55:57.406Z,4.67
2018-07-12T22:58:25.786Z,4.83
2018-07-12T23:00:54.241Z,4.70
2018-07-12T23:03:22.692Z,4.80
2018-07-12T23:05:51.128Z,4.70
2018-07-12T23:08:19.487Z,4.87
2018-07-12T23:10:47.862Z,4.60
2018-07-12T23:13:16.477Z,4.80
2018-07-12T23:15:45.064Z,4.83
2018-07-12T23:18:13.801Z,4.57
2018-07-12T23:20:42.288Z,4.40
2018-07-12T23:23:10.624Z,5.00
2018-07-12T23:25:38.988Z,4.70
2018-07-12T23:28:07.369Z,4.57
2018-07-12T23:30:35.765Z,4.70
2018-07-12T23:33:04.226Z,4.87
2018-07-12T23:35:32.605Z,4.50
2018-07-12T23:38:00.939Z,4.80
2018-07-12T23:40:29.333Z,4.10
2018-07-12T23:42:57.760Z,4.73
2018-07-12T23:45:26.127Z,4.37
2018-07-12T23:47:54.507Z,4.20
2018-07-12T23:50:22.895Z,3.80
2018-07-12T23:52:51.309Z,4.53
2018-07-12T23:55:19.669Z,4.90
2018-07-12T23:57:47.896Z,4.40
